Hoover, Alabama
Current Conditions -  °F | °C
As of 11:53 PM on Wednesday 28 Jan 2015 (Local Time) from KBHM Reporting Station
Clear Clear  
Wind Chill: 44°   Ceiling: Unl
Heat Index: 44°   Visibility: 10mi
Dew Point: 29°   Wind: 3mph
Humidity: 55%   Direction: 60°ENE
Pressure: 30.24"   Gusts: NA
Location:  33.39°N, 86.8°W
Report Text: KBHM 290553Z 06003KT 10SM CLR 07/M02 A3024 RMK AO2 SLP242 T00671017 10094 20039 401441033 53001
Loading
Personal Weather Stations






























Interactive Weather Map New forecast layout! Learn more

10-Day Weather Forecast

Advertisements
Track Severe Weather on mobile